createdAt,value
2023-04-01T00:01:18.128Z,1.63
2023-04-01T00:03:46.950Z,1.30
2023-04-01T00:06:18.017Z,1.40
2023-04-01T00:08:46.666Z,1.23
2023-04-01T00:11:15.830Z,1.50
2023-04-01T00:13:44.483Z,1.10
2023-04-01T00:16:20.471Z,1.67
2023-04-01T00:18:52.912Z,1.30
2023-04-01T00:21:22.729Z,1.10
2023-04-01T00:23:51.706Z,1.27
2023-04-01T00:26:22.276Z,1.13
2023-04-01T00:28:51.470Z,1.30
2023-04-01T00:31:20.476Z,1.57
2023-04-01T00:33:49.063Z,1.07
2023-04-01T00:36:22.529Z,1.47
2023-04-01T00:38:52.756Z,1.50
2023-04-01T00:41:22.319Z,1.47
2023-04-01T00:43:53.197Z,1.23
2023-04-01T00:46:21.917Z,1.47
2023-04-01T00:48:53.939Z,1.73
2023-04-01T00:51:28.912Z,1.23
2023-04-01T00:54:02.593Z,1.87
2023-04-01T00:56:37.967Z,1.30
2023-04-01T00:59:11.910Z,1.40
2023-04-01T01:01:40.793Z,1.23
2023-04-01T01:04:09.290Z,1.30
2023-04-01T01:06:51.202Z,1.20
2023-04-01T01:09:37.592Z,1.30
2023-04-01T01:12:13.451Z,1.67
2023-04-01T01:15:03.664Z,1.37
2023-04-01T01:17:44.528Z,1.27
2023-04-01T01:20:50.869Z,2.23
2023-04-01T01:24:05.645Z,2.17
2023-04-01T01:27:06.626Z,1.00
2023-04-01T01:30:12.629Z,1.47
2023-04-01T01:33:32.424Z,1.00
2023-04-01T01:36:07.429Z,1.33
2023-04-01T01:38:37.841Z,1.50
2023-04-01T01:41:09.527Z,1.00
2023-04-01T01:43:42.101Z,1.33
2023-04-01T01:46:14.919Z,1.57
2023-04-01T01:48:45.432Z,1.67
2023-04-01T01:51:15.324Z,1.53
2023-04-01T01:53:43.679Z,1.43
2023-04-01T01:56:15.067Z,1.13
2023-04-01T01:58:47.428Z,0.97
2023-04-01T02:01:23.610Z,1.30
2023-04-01T02:03:53.211Z,1.03
2023-04-01T02:06:26.737Z,1.10
2023-04-01T02:08:58.727Z,1.20
2023-04-01T02:11:32.706Z,1.00
2023-04-01T02:14:06.935Z,1.00
2023-04-01T02:16:41.265Z,1.17
2023-04-01T02:19:12.627Z,0.93
2023-04-01T02:21:44.802Z,1.30
2023-04-01T02:24:17.140Z,1.30
2023-04-01T02:26:47.377Z,0.80
2023-04-01T02:29:16.236Z,1.23
2023-04-01T02:31:45.444Z,1.37
2023-04-01T02:34:14.285Z,1.10
2023-04-01T02:36:44.717Z,1.10
2023-04-01T02:39:15.315Z,1.20
2023-04-01T02:41:44.965Z,1.70
2023-04-01T02:44:16.095Z,1.23
2023-04-01T02:46:45.783Z,1.60
2023-04-01T02:49:14.290Z,1.00
2023-04-01T02:51:44.251Z,0.97
2023-04-01T02:54:12.845Z,1.00
2023-04-01T02:56:41.341Z,1.00
2023-04-01T02:59:09.643Z,1.20
2023-04-01T03:01:38.232Z,1.60
2023-04-01T03:04:07.129Z,1.00
2023-04-01T03:06:35.536Z,0.90
2023-04-01T03:09:05.453Z,1.07
2023-04-01T03:11:34.255Z,1.00
2023-04-01T03:14:02.636Z,1.00
2023-04-01T03:16:31.042Z,1.00
2023-04-01T03:19:00.756Z,1.10
2023-04-01T03:21:29.219Z,1.10
2023-04-01T03:23:57.607Z,0.90
2023-04-01T03:26:28.898Z,1.20
2023-04-01T03:28:58.036Z,1.10
2023-04-01T03:31:26.891Z,1.30
2023-04-01T03:33:58.403Z,1.03
2023-04-01T03:36:27.022Z,1.00
2023-04-01T03:38:55.424Z,1.90
2023-04-01T03:41:38.219Z,1.03
2023-04-01T03:44:07.336Z,0.90
2023-04-01T03:46:36.814Z,1.17
2023-04-01T03:49:12.333Z,1.50
2023-04-01T03:51:41.181Z,1.53
2023-04-01T03:54:10.093Z,0.77
2023-04-01T03:56:40.205Z,1.23
2023-04-01T03:59:09.996Z,1.33
2023-04-01T04:01:38.516Z,1.07
2023-04-01T04:04:07.344Z,1.77
2023-04-01T04:06:36.054Z,1.00
2023-04-01T04:09:04.648Z,1.23
2023-04-01T04:11:33.981Z,1.80
2023-04-01T04:14:04.163Z,1.20
2023-04-01T04:16:32.852Z,1.10
2023-04-01T04:19:04.562Z,1.80
2023-04-01T04:21:32.984Z,1.40
2023-04-01T04:24:02.817Z,2.00
2023-04-01T04:26:47.213Z,1.13
2023-04-01T04:29:16.914Z,1.13
2023-04-01T04:31:45.657Z,1.47
2023-04-01T04:34:14.428Z,1.10
2023-04-01T04:36:42.805Z,1.00
2023-04-01T04:39:11.655Z,0.80
2023-04-01T04:41:42.292Z,1.67
2023-04-01T04:44:10.770Z,1.00
2023-04-01T04:46:41.316Z,0.90
2023-04-01T04:49:16.200Z,1.07
2023-04-01T04:51:45.042Z,1.10
2023-04-01T04:54:14.847Z,1.43
2023-04-01T04:56:54.127Z,1.60
2023-04-01T04:59:23.674Z,1.03
2023-04-01T05:02:01.369Z,0.90
2023-04-01T05:04:30.674Z,1.13
2023-04-01T05:06:59.003Z,1.00
2023-04-01T05:09:27.591Z,0.90
2023-04-01T05:11:56.257Z,1.17
2023-04-01T05:14:26.181Z,1.33
2023-04-01T05:17:02.545Z,0.80
2023-04-01T05:19:30.895Z,1.67
2023-04-01T05:21:59.307Z,0.80
2023-04-01T05:24:27.662Z,0.83
2023-04-01T05:26:57.168Z,0.90
2023-04-01T05:29:26.785Z,1.10
2023-04-01T05:32:04.341Z,1.10
2023-04-01T05:34:32.789Z,1.53
2023-04-01T05:37:01.302Z,1.03
2023-04-01T05:39:29.739Z,1.00
2023-04-01T05:41:58.134Z,0.87
2023-04-01T05:44:26.477Z,0.97
2023-04-01T05:47:16.105Z,0.70
2023-04-01T05:49:44.424Z,1.10
2023-04-01T05:52:12.795Z,2.57
2023-04-01T05:54:41.366Z,0.90
2023-04-01T05:57:09.773Z,0.80
2023-04-01T05:59:38.228Z,1.20
2023-04-01T06:02:06.783Z,1.23
2023-04-01T06:04:41.235Z,1.50
2023-04-01T06:07:18.747Z,0.70
2023-04-01T06:09:47.975Z,0.60
2023-04-01T06:12:34.961Z,1.03
2023-04-01T06:15:19.273Z,1.00
2023-04-01T06:18:10.076Z,0.80
2023-04-01T06:20:47.761Z,1.10
2023-04-01T06:23:33.446Z,0.80
2023-04-01T06:26:17.318Z,0.97
2023-04-01T06:29:14.895Z,0.97
2023-04-01T06:32:13.630Z,1.00
2023-04-01T06:35:11.158Z,1.00
2023-04-01T06:38:33.126Z,1.00
2023-04-01T06:41:29.219Z,0.90
2023-04-01T06:44:14.060Z,0.80
2023-04-01T06:47:06.011Z,0.90
2023-04-01T06:50:17.234Z,0.73
2023-04-01T06:53:18.562Z,0.90
2023-04-01T06:56:23.256Z,0.73
2023-04-01T06:59:08.055Z,1.20
2023-04-01T07:01:41.674Z,0.80
2023-04-01T07:04:16.928Z,1.10
2023-04-01T07:06:51.048Z,0.87
2023-04-01T07:09:24.895Z,0.70
2023-04-01T07:12:18.874Z,1.27
2023-04-01T07:15:15.604Z,0.60
2023-04-01T07:17:47.155Z,1.00
2023-04-01T07:20:22.792Z,0.77
2023-04-01T07:22:54.026Z,0.63
2023-04-01T07:25:33.944Z,0.80
2023-04-01T07:28:35.160Z,1.03
2023-04-01T07:31:57.729Z,0.63
2023-04-01T07:34:29.764Z,1.33
2023-04-01T07:37:05.790Z,0.87
2023-04-01T07:39:50.143Z,1.00
2023-04-01T07:42:46.889Z,0.80
2023-04-01T07:45:25.109Z,1.30
2023-04-01T07:48:18.077Z,0.87
2023-04-01T07:50:56.464Z,0.60
2023-04-01T07:53:34.870Z,0.70
2023-04-01T07:56:12.285Z,0.90
2023-04-01T07:58:57.550Z,1.10
2023-04-01T08:01:56.123Z,0.67
2023-04-01T08:04:38.112Z,0.97
2023-04-01T08:07:12.790Z,0.70
2023-04-01T08:10:00.444Z,0.90
2023-04-01T08:13:15.706Z,0.80
2023-04-01T08:16:13.355Z,0.80
2023-04-01T08:19:03.063Z,0.87
2023-04-01T08:21:37.827Z,0.70
2023-04-01T08:24:20.681Z,0.90
2023-04-01T08:26:56.240Z,0.47
2023-04-01T08:29:28.947Z,1.00
2023-04-01T08:32:05.755Z,0.73
2023-04-01T08:34:39.602Z,1.20
2023-04-01T08:37:19.608Z,0.80
2023-04-01T08:39:56.626Z,0.90
2023-04-01T08:43:03.411Z,0.83
2023-04-01T08:46:07.517Z,0.87
2023-04-01T08:48:59.792Z,0.60
2023-04-01T08:52:07.565Z,1.03
2023-04-01T08:55:05.155Z,0.60
2023-04-01T08:58:25.957Z,1.00
2023-04-01T09:02:05.730Z,0.63
2023-04-01T09:05:23.650Z,1.10
2023-04-01T09:08:09.655Z,0.90
2023-04-01T09:10:59.030Z,0.97
2023-04-01T09:14:23.823Z,0.70
2023-04-01T09:17:39.414Z,0.83
2023-04-01T09:20:37.402Z,0.57
2023-04-01T09:23:29.265Z,1.00
2023-04-01T09:26:21.212Z,1.00
2023-04-01T09:29:01.614Z,0.90
2023-04-01T09:32:03.798Z,0.93
2023-04-01T09:34:56.714Z,1.00
2023-04-01T09:37:38.288Z,0.70
2023-04-01T09:40:28.534Z,0.83
2023-04-01T09:43:46.068Z,1.00
2023-04-01T09:46:23.315Z,0.90
2023-04-01T09:49:16.107Z,0.90
2023-04-01T09:52:00.335Z,0.80
2023-04-01T09:54:48.527Z,0.70
2023-04-01T09:57:54.762Z,0.70
2023-04-01T10:01:28.926Z,0.70
2023-04-01T10:04:51.510Z,1.13
2023-04-01T10:08:02.329Z,0.70
2023-04-01T10:11:16.372Z,0.90
2023-04-01T10:14:28.515Z,1.87
2023-04-01T10:17:44.323Z,0.57
2023-04-01T10:20:42.036Z,0.50
2023-04-01T10:23:27.603Z,0.77
2023-04-01T10:26:32.614Z,0.80
2023-04-01T10:29:57.706Z,0.60
2023-04-01T10:33:24.457Z,0.70
2023-04-01T10:36:36.847Z,1.00
2023-04-01T10:39:57.051Z,1.47
2023-04-01T10:43:30.662Z,1.10
2023-04-01T10:46:55.955Z,0.93
2023-04-01T10:50:19.411Z,0.90
2023-04-01T10:53:33.847Z,0.63
2023-04-01T10:56:42.427Z,0.77
2023-04-01T11:00:17.810Z,1.10
2023-04-01T11:03:44.505Z,0.90
2023-04-01T11:07:53.017Z,1.00
2023-04-01T11:11:24.448Z,1.20
2023-04-01T11:14:33.490Z,1.20
2023-04-01T11:18:06.357Z,0.90
2023-04-01T11:20:59.564Z,0.80
2023-04-01T11:24:04.516Z,1.03
2023-04-01T11:26:55.302Z,0.90
2023-04-01T11:30:15.389Z,0.93
2023-04-01T11:32:56.380Z,0.93
2023-04-01T11:35:57.912Z,1.50
2023-04-01T11:38:44.873Z,1.77
2023-04-01T11:41:40.283Z,1.63
2023-04-01T11:44:41.950Z,1.30
2023-04-01T11:47:34.233Z,1.50
2023-04-01T11:50:23.245Z,1.20
2023-04-01T11:53:13.084Z,1.10
2023-04-01T11:55:56.042Z,1.20
2023-04-01T11:59:01.378Z,1.53
2023-04-01T12:01:44.810Z,1.40
2023-04-01T12:05:17.604Z,0.80
2023-04-01T12:08:10.188Z,0.70
2023-04-01T12:10:44.173Z,0.37
2023-04-01T12:13:31.567Z,0.57
2023-04-01T12:16:32.883Z,0.70
2023-04-01T12:19:10.218Z,0.80
2023-04-01T12:21:41.627Z,0.50
2023-04-01T12:24:36.167Z,0.60
2023-04-01T12:27:41.022Z,0.70
2023-04-01T12:30:45.104Z,0.80
2023-04-01T12:33:43.510Z,0.90
2023-04-01T12:36:26.093Z,0.80
2023-04-01T12:39:20.181Z,1.10
2023-04-01T12:41:57.412Z,0.80
2023-04-01T12:44:50.642Z,0.70
2023-04-01T12:48:03.429Z,0.97
2023-04-01T12:50:50.785Z,0.80
2023-04-01T12:53:42.457Z,0.90
2023-04-01T12:56:19.147Z,0.87
2023-04-01T12:59:27.740Z,1.00
2023-04-01T13:02:10.087Z,1.20
2023-04-01T13:05:12.740Z,0.90
2023-04-01T13:07:59.720Z,1.00
2023-04-01T13:10:53.729Z,0.90
2023-04-01T13:13:59.934Z,1.13
2023-04-01T13:16:31.538Z,0.97
2023-04-01T13:19:06.175Z,1.30
2023-04-01T13:21:47.232Z,1.27
2023-04-01T13:24:33.465Z,1.63
2023-04-01T13:27:10.496Z,1.90
2023-04-01T13:29:46.077Z,1.90
2023-04-01T13:32:43.264Z,2.07
2023-04-01T13:35:31.069Z,1.63
2023-04-01T13:38:41.868Z,1.43
2023-04-01T13:41:24.709Z,0.80
2023-04-01T13:44:02.116Z,2.33
2023-04-01T13:47:08.662Z,1.00
2023-04-01T13:49:55.634Z,3.70
2023-04-01T13:52:53.614Z,1.67
2023-04-01T13:55:55.295Z,2.10
2023-04-01T13:58:53.205Z,2.27
2023-04-01T14:01:35.301Z,1.73
2023-04-01T14:04:37.012Z,2.10
2023-04-01T14:07:39.236Z,3.13
2023-04-01T14:10:24.928Z,3.70
2023-04-01T14:13:03.006Z,2.33
2023-04-01T14:15:56.251Z,1.93
2023-04-01T14:18:50.410Z,1.43
2023-04-01T14:21:37.323Z,1.10
2023-04-01T14:24:39.448Z,1.03
2023-04-01T14:27:48.175Z,0.83
2023-04-01T14:30:49.625Z,1.20
2023-04-01T14:33:36.768Z,1.17
2023-04-01T14:36:35.256Z,1.83
2023-04-01T14:39:22.371Z,1.40
2023-04-01T14:42:08.739Z,0.87
2023-04-01T14:45:26.376Z,1.40
2023-04-01T14:47:56.965Z,1.47
2023-04-01T14:50:29.158Z,2.20
2023-04-01T14:53:15.480Z,3.30
2023-04-01T14:55:53.894Z,3.53
2023-04-01T14:58:26.300Z,2.30
2023-04-01T15:01:14.306Z,2.13
2023-04-01T15:03:56.197Z,1.30
2023-04-01T15:06:45.669Z,1.67
2023-04-01T15:09:28.695Z,1.43
2023-04-01T15:12:14.320Z,1.13
2023-04-01T15:14:58.672Z,1.73
2023-04-01T15:17:47.517Z,1.20
2023-04-01T15:20:49.666Z,1.17
2023-04-01T15:23:47.450Z,1.00
2023-04-01T15:26:30.121Z,0.97
2023-04-01T15:29:38.279Z,1.87
2023-04-01T15:32:19.849Z,1.00
2023-04-01T15:34:57.433Z,1.30
2023-04-01T15:37:38.318Z,0.80
2023-04-01T15:40:22.019Z,1.20
2023-04-01T15:43:23.198Z,1.50
2023-04-01T15:46:01.081Z,1.53
2023-04-01T15:48:52.166Z,1.10
2023-04-01T15:51:38.214Z,1.20
2023-04-01T15:54:42.493Z,1.90
2023-04-01T15:57:31.645Z,2.07
2023-04-01T16:00:24.432Z,1.87
2023-04-01T16:03:12.655Z,1.53
2023-04-01T16:05:56.934Z,1.53
2023-04-01T16:08:51.620Z,2.20
2023-04-01T16:11:32.029Z,2.60
2023-04-01T16:14:20.714Z,1.90
2023-04-01T16:17:14.351Z,3.83
2023-04-01T16:19:54.655Z,2.13
2023-04-01T16:22:28.282Z,2.80
2023-04-01T16:25:08.042Z,2.30
2023-04-01T16:27:46.073Z,2.00
2023-04-01T16:30:37.264Z,2.80
2023-04-01T16:33:15.153Z,1.80
2023-04-01T16:35:48.616Z,2.33
2023-04-01T16:38:26.085Z,2.40
2023-04-01T16:41:16.987Z,1.77
2023-04-01T16:43:49.446Z,2.20
2023-04-01T16:46:33.703Z,1.60
2023-04-01T16:49:19.580Z,2.30
2023-04-01T16:51:56.002Z,2.00
2023-04-01T16:54:33.014Z,1.80
2023-04-01T16:57:20.037Z,1.70
2023-04-01T16:59:59.622Z,1.90
2023-04-01T17:02:31.378Z,1.70
2023-04-01T17:05:06.086Z,2.80
2023-04-01T17:07:49.449Z,1.83
2023-04-01T17:10:51.407Z,3.20
2023-04-01T17:13:49.763Z,2.20
2023-04-01T17:17:04.014Z,2.37
2023-04-01T17:19:59.773Z,3.60
2023-04-01T17:22:39.742Z,2.03
2023-04-01T17:25:36.505Z,1.80
2023-04-01T17:28:19.349Z,3.10
2023-04-01T17:30:58.048Z,3.43
2023-04-01T17:33:45.487Z,4.70
2023-04-01T17:36:27.417Z,6.03
2023-04-01T17:39:28.342Z,3.23
2023-04-01T17:42:06.396Z,3.13
2023-04-01T17:44:51.970Z,1.70
2023-04-01T17:47:39.273Z,1.80
2023-04-01T17:50:24.111Z,1.43
2023-04-01T17:53:08.274Z,2.07
2023-04-01T17:55:56.768Z,2.27
2023-04-01T17:58:32.248Z,2.70
2023-04-01T18:01:17.926Z,2.83
2023-04-01T18:04:13.390Z,2.40
2023-04-01T18:07:01.351Z,2.60
2023-04-01T18:09:43.986Z,3.43
2023-04-01T18:12:21.739Z,2.97
2023-04-01T18:15:18.892Z,2.80
2023-04-01T18:18:06.143Z,3.30
2023-04-01T18:20:47.729Z,2.00
2023-04-01T18:23:28.834Z,1.90
2023-04-01T18:26:06.840Z,2.43
2023-04-01T18:28:40.600Z,2.37
2023-04-01T18:31:16.932Z,2.60
2023-04-01T18:33:58.971Z,2.57
2023-04-01T18:36:42.505Z,3.60
2023-04-01T18:39:17.149Z,2.87
2023-04-01T18:41:58.013Z,2.30
2023-04-01T18:44:39.763Z,2.27
2023-04-01T18:47:27.518Z,2.83
2023-04-01T18:50:03.638Z,2.43
2023-04-01T18:52:37.273Z,2.30
2023-04-01T18:55:31.578Z,3.53
2023-04-01T18:58:17.070Z,2.50
2023-04-01T19:00:52.187Z,2.43
2023-04-01T19:03:25.827Z,2.40
2023-04-01T19:05:56.005Z,1.80
2023-04-01T19:08:34.044Z,2.60
2023-04-01T19:11:12.265Z,3.23
2023-04-01T19:13:52.643Z,5.20
2023-04-01T19:16:39.853Z,3.83
2023-04-01T19:19:27.011Z,4.17
2023-04-01T19:22:00.546Z,5.47
2023-04-01T19:25:16.482Z,3.87
2023-04-01T19:27:49.083Z,3.13
2023-04-01T19:30:30.405Z,3.13
2023-04-01T19:33:10.588Z,2.60
2023-04-01T19:35:45.779Z,2.10
2023-04-01T19:38:24.627Z,1.70
2023-04-01T19:41:00.374Z,4.00
2023-04-01T19:43:52.531Z,2.50
2023-04-01T19:46:30.111Z,1.67
2023-04-01T19:49:17.468Z,1.67
2023-04-01T19:51:53.677Z,1.70
2023-04-01T19:54:35.578Z,1.83
2023-04-01T19:57:17.144Z,1.67
2023-04-01T19:59:52.986Z,2.53
2023-04-01T20:02:45.647Z,2.53
2023-04-01T20:05:37.148Z,2.00
2023-04-01T20:08:16.035Z,2.50
2023-04-01T20:10:57.719Z,2.40
2023-04-01T20:13:39.189Z,1.60
2023-04-01T20:16:10.169Z,1.77
2023-04-01T20:18:50.340Z,3.90
2023-04-01T20:21:37.140Z,2.70
2023-04-01T20:24:18.207Z,1.60
2023-04-01T20:26:53.173Z,1.67
2023-04-01T20:29:39.763Z,1.47
2023-04-01T20:32:23.622Z,1.80
2023-04-01T20:35:28.454Z,2.00
2023-04-01T20:38:15.261Z,2.83
2023-04-01T20:40:47.689Z,2.57
2023-04-01T20:43:46.629Z,2.00
2023-04-01T20:46:23.195Z,1.90
2023-04-01T20:49:37.345Z,2.00
2023-04-01T20:52:28.977Z,2.63
2023-04-01T20:55:51.665Z,1.90
2023-04-01T20:58:31.641Z,2.20
2023-04-01T21:01:16.947Z,2.50
2023-04-01T21:03:58.799Z,1.93
2023-04-01T21:06:57.131Z,1.47
2023-04-01T21:09:58.046Z,1.17
2023-04-01T21:12:38.532Z,0.90
2023-04-01T21:15:39.427Z,1.10
2023-04-01T21:18:28.951Z,1.43
2023-04-01T21:21:37.254Z,1.17
2023-04-01T21:24:41.138Z,1.97
2023-04-01T21:27:18.289Z,2.27
2023-04-01T21:29:58.057Z,2.40
2023-04-01T21:32:47.563Z,3.27
2023-04-01T21:35:30.218Z,3.93
2023-04-01T21:38:29.441Z,2.80
2023-04-01T21:41:20.521Z,2.40
2023-04-01T21:44:30.308Z,2.20
2023-04-01T21:47:47.627Z,1.50
2023-04-01T21:50:58.003Z,1.30
2023-04-01T21:54:19.012Z,1.30
2023-04-01T21:57:32.190Z,1.43
2023-04-01T22:00:20.744Z,1.33
2023-04-01T22:03:41.825Z,1.40
2023-04-01T22:06:27.233Z,1.47
2023-04-01T22:09:05.683Z,1.37
2023-04-01T22:11:55.344Z,1.60
2023-04-01T22:14:33.683Z,1.40
2023-04-01T22:17:09.344Z,1.40
2023-04-01T22:19:47.759Z,2.03
2023-04-01T22:22:24.397Z,2.10
2023-04-01T22:25:04.309Z,2.27
2023-04-01T22:27:41.700Z,2.40
2023-04-01T22:30:20.084Z,1.90
2023-04-01T22:32:51.012Z,2.13
2023-04-01T22:35:43.290Z,1.37
2023-04-01T22:38:33.724Z,1.73
2023-04-01T22:41:13.444Z,1.87
2023-04-01T22:43:44.365Z,2.53
2023-04-01T22:46:54.157Z,1.37
2023-04-01T22:49:28.888Z,1.50
2023-04-01T22:52:04.631Z,1.50
2023-04-01T22:54:38.699Z,1.27
2023-04-01T22:57:14.252Z,1.50
2023-04-01T22:59:50.045Z,1.70
2023-04-01T23:02:26.265Z,1.30
2023-04-01T23:04:58.905Z,1.20
2023-04-01T23:07:47.736Z,1.60
2023-04-01T23:10:24.635Z,1.27
2023-04-01T23:12:56.271Z,1.40
2023-04-01T23:15:25.277Z,1.50
2023-04-01T23:18:07.999Z,1.50
2023-04-01T23:20:58.757Z,1.30
2023-04-01T23:23:41.179Z,1.57
2023-04-01T23:26:17.760Z,1.40
2023-04-01T23:28:54.245Z,1.57
2023-04-01T23:31:35.709Z,1.33
2023-04-01T23:34:20.394Z,1.93
2023-04-01T23:36:51.757Z,1.33
2023-04-01T23:39:27.051Z,1.40
2023-04-01T23:42:00.733Z,1.67
2023-04-01T23:44:31.273Z,1.40
2023-04-01T23:47:01.691Z,1.20
2023-04-01T23:49:37.113Z,1.40
2023-04-01T23:52:15.772Z,1.40
2023-04-01T23:54:50.597Z,1.60
2023-04-01T23:57:24.602Z,1.63
